sensor_id;sensor_type;location;lat;lon;timestamp;pressure;altitude;pressure_sealevel;temperature;humidity
9695;BME280;4690;52.422;13.486;2024-02-28T00:08:36;101541.81;;;6.79;93.70
9695;BME280;4690;52.422;13.486;2024-02-28T00:11:02;101525.31;;;6.72;93.59
9695;BME280;4690;52.422;13.486;2024-02-28T00:13:27;101525.03;;;6.67;93.84
9695;BME280;4690;52.422;13.486;2024-02-28T00:15:53;101522.06;;;6.77;93.88
9695;BME280;4690;52.422;13.486;2024-02-28T00:18:22;101530.16;;;6.85;93.68
9695;BME280;4690;52.422;13.486;2024-02-28T00:20:49;101523.31;;;6.89;93.53
9695;BME280;4690;52.422;13.486;2024-02-28T00:23:14;101516.84;;;6.90;93.11
9695;BME280;4690;52.422;13.486;2024-02-28T00:25:40;101522.38;;;6.82;93.21
9695;BME280;4690;52.422;13.486;2024-02-28T00:28:06;101525.56;;;6.86;93.64
9695;BME280;4690;52.422;13.486;2024-02-28T00:30:32;101525.50;;;6.94;93.45
9695;BME280;4690;52.422;13.486;2024-02-28T00:32:59;101528.38;;;6.92;92.98
9695;BME280;4690;52.422;13.486;2024-02-28T00:35:25;101531.13;;;6.92;93.30
9695;BME280;4690;52.422;13.486;2024-02-28T00:37:51;101531.75;;;6.80;93.23
9695;BME280;4690;52.422;13.486;2024-02-28T00:40:17;101533.94;;;6.84;92.65
9695;BME280;4690;52.422;13.486;2024-02-28T00:42:42;101538.28;;;6.93;92.88
9695;BME280;4690;52.422;13.486;2024-02-28T00:45:09;101538.94;;;6.95;92.37
9695;BME280;4690;52.422;13.486;2024-02-28T00:47:35;101539.97;;;6.94;92.32
9695;BME280;4690;52.422;13.486;2024-02-28T00:50:01;101531.84;;;6.86;92.22
9695;BME280;4690;52.422;13.486;2024-02-28T00:52:30;101533.50;;;6.95;92.36
9695;BME280;4690;52.422;13.486;2024-02-28T00:54:57;101533.06;;;7.07;92.19
9695;BME280;4690;52.422;13.486;2024-02-28T00:57:23;101534.53;;;7.09;91.60
9695;BME280;4690;52.422;13.486;2024-02-28T00:59:49;101534.84;;;7.14;91.26
9695;BME280;4690;52.422;13.486;2024-02-28T01:02:15;101543.69;;;7.16;91.26
9695;BME280;4690;52.422;13.486;2024-02-28T01:04:41;101543.84;;;7.15;91.05
9695;BME280;4690;52.422;13.486;2024-02-28T01:07:10;101548.28;;;7.16;90.75
9695;BME280;4690;52.422;13.486;2024-02-28T01:09:36;101548.28;;;7.16;90.88
9695;BME280;4690;52.422;13.486;2024-02-28T01:12:02;101547.16;;;7.10;90.30
9695;BME280;4690;52.422;13.486;2024-02-28T01:14:28;101542.91;;;7.08;90.79
9695;BME280;4690;52.422;13.486;2024-02-28T01:16:54;101543.72;;;6.93;91.10
9695;BME280;4690;52.422;13.486;2024-02-28T01:19:20;101539.28;;;6.92;92.01
9695;BME280;4690;52.422;13.486;2024-02-28T01:21:45;101544.09;;;6.90;91.92
9695;BME280;4690;52.422;13.486;2024-02-28T01:24:11;101540.69;;;6.88;91.48
9695;BME280;4690;52.422;13.486;2024-02-28T01:26:37;101549.13;;;6.79;92.12
9695;BME280;4690;52.422;13.486;2024-02-28T01:29:03;101556.06;;;6.81;92.10
9695;BME280;4690;52.422;13.486;2024-02-28T01:31:28;101540.44;;;6.75;92.51
9695;BME280;4690;52.422;13.486;2024-02-28T01:33:54;101550.09;;;6.63;92.49
9695;BME280;4690;52.422;13.486;2024-02-28T01:36:21;101557.28;;;6.56;93.47
9695;BME280;4690;52.422;13.486;2024-02-28T01:38:47;101553.59;;;6.71;93.64
9695;BME280;4690;52.422;13.486;2024-02-28T01:41:13;101550.81;;;6.80;92.96
9695;BME280;4690;52.422;13.486;2024-02-28T01:43:38;101545.69;;;6.85;92.84
9695;BME280;4690;52.422;13.486;2024-02-28T01:46:27;101546.50;;;6.85;92.62
9695;BME280;4690;52.422;13.486;2024-02-28T01:48:54;101552.34;;;6.82;92.42
9695;BME280;4690;52.422;13.486;2024-02-28T01:51:24;101556.38;;;6.86;92.34
9695;BME280;4690;52.422;13.486;2024-02-28T01:53:52;101548.25;;;6.78;92.16
9695;BME280;4690;52.422;13.486;2024-02-28T01:56:20;101547.63;;;6.76;92.23
9695;BME280;4690;52.422;13.486;2024-02-28T01:58:48;101545.91;;;6.75;91.94
9695;BME280;4690;52.422;13.486;2024-02-28T02:01:15;101546.75;;;6.53;92.22
9695;BME280;4690;52.422;13.486;2024-02-28T02:03:43;101538.16;;;6.64;92.48
9695;BME280;4690;52.422;13.486;2024-02-28T02:06:10;101544.81;;;6.61;92.23
9695;BME280;4690;52.422;13.486;2024-02-28T02:08:37;101534.97;;;6.60;92.61
9695;BME280;4690;52.422;13.486;2024-02-28T02:11:05;101529.63;;;6.67;92.14
9695;BME280;4690;52.422;13.486;2024-02-28T02:13:32;101539.63;;;6.74;91.78
9695;BME280;4690;52.422;13.486;2024-02-28T02:15:58;101536.34;;;6.79;92.02
9695;BME280;4690;52.422;13.486;2024-02-28T02:18:23;101534.41;;;6.88;91.51
9695;BME280;4690;52.422;13.486;2024-02-28T02:21:04;101528.66;;;6.83;91.47
9695;BME280;4690;52.422;13.486;2024-02-28T02:23:31;101526.03;;;6.89;91.01
9695;BME280;4690;52.422;13.486;2024-02-28T02:25:57;101529.19;;;6.78;91.35
9695;BME280;4690;52.422;13.486;2024-02-28T02:28:23;101528.22;;;6.94;91.20
9695;BME280;4690;52.422;13.486;2024-02-28T02:30:49;101533.28;;;6.97;90.64
9695;BME280;4690;52.422;13.486;2024-02-28T02:33:15;101540.25;;;7.00;90.80
9695;BME280;4690;52.422;13.486;2024-02-28T02:35:41;101535.66;;;7.00;90.58
9695;BME280;4690;52.422;13.486;2024-02-28T02:38:06;101552.56;;;6.95;90.28
9695;BME280;4690;52.422;13.486;2024-02-28T02:40:32;101554.16;;;6.90;90.28
9695;BME280;4690;52.422;13.486;2024-02-28T02:42:58;101553.09;;;6.91;90.30
9695;BME280;4690;52.422;13.486;2024-02-28T02:45:23;101555.09;;;6.97;90.19
9695;BME280;4690;52.422;13.486;2024-02-28T02:47:49;101555.56;;;7.01;89.80
9695;BME280;4690;52.422;13.486;2024-02-28T02:50:15;101558.13;;;7.02;90.04
9695;BME280;4690;52.422;13.486;2024-02-28T02:52:41;101561.69;;;7.03;89.76
9695;BME280;4690;52.422;13.486;2024-02-28T02:55:07;101563.81;;;6.92;89.66
9695;BME280;4690;52.422;13.486;2024-02-28T02:57:33;101567.50;;;7.00;89.67
9695;BME280;4690;52.422;13.486;2024-02-28T02:59:59;101570.31;;;6.91;89.61
9695;BME280;4690;52.422;13.486;2024-02-28T03:02:25;101565.53;;;6.93;89.71
9695;BME280;4690;52.422;13.486;2024-02-28T03:04:50;101566.38;;;6.94;89.99
9695;BME280;4690;52.422;13.486;2024-02-28T03:07:16;101572.91;;;6.85;90.15
9695;BME280;4690;52.422;13.486;2024-02-28T03:09:42;101569.63;;;6.89;90.09
9695;BME280;4690;52.422;13.486;2024-02-28T03:12:08;101571.66;;;6.95;90.13
9695;BME280;4690;52.422;13.486;2024-02-28T03:14:35;101568.78;;;6.89;89.96
9695;BME280;4690;52.422;13.486;2024-02-28T03:17:01;101570.31;;;6.91;90.08
9695;BME280;4690;52.422;13.486;2024-02-28T03:19:27;101574.72;;;6.92;89.86
9695;BME280;4690;52.422;13.486;2024-02-28T03:21:53;101577.75;;;6.97;89.67
9695;BME280;4690;52.422;13.486;2024-02-28T03:24:19;101573.03;;;6.91;89.80
9695;BME280;4690;52.422;13.486;2024-02-28T03:26:45;101579.38;;;6.84;89.80
9695;BME280;4690;52.422;13.486;2024-02-28T03:29:10;101581.09;;;6.85;90.14
9695;BME280;4690;52.422;13.486;2024-02-28T03:31:36;101588.22;;;6.86;89.09
9695;BME280;4690;52.422;13.486;2024-02-28T03:34:02;101582.97;;;6.84;89.56
9695;BME280;4690;52.422;13.486;2024-02-28T03:36:29;101591.84;;;6.78;89.60
9695;BME280;4690;52.422;13.486;2024-02-28T03:38:55;101591.91;;;6.70;89.26
9695;BME280;4690;52.422;13.486;2024-02-28T03:41:20;101586.13;;;6.73;88.97
9695;BME280;4690;52.422;13.486;2024-02-28T03:43:46;101596.66;;;6.76;88.38
9695;BME280;4690;52.422;13.486;2024-02-28T03:46:12;101594.63;;;6.70;88.38
9695;BME280;4690;52.422;13.486;2024-02-28T03:48:37;101585.06;;;6.74;88.43
9695;BME280;4690;52.422;13.486;2024-02-28T03:51:03;101588.94;;;6.80;87.90
9695;BME280;4690;52.422;13.486;2024-02-28T03:53:30;101592.53;;;6.80;87.52
9695;BME280;4690;52.422;13.486;2024-02-28T03:55:55;101586.97;;;6.73;87.76
9695;BME280;4690;52.422;13.486;2024-02-28T03:58:21;101585.25;;;6.72;87.16
9695;BME280;4690;52.422;13.486;2024-02-28T04:00:47;101581.16;;;6.77;87.21
9695;BME280;4690;52.422;13.486;2024-02-28T04:03:13;101594.94;;;6.75;87.16
9695;BME280;4690;52.422;13.486;2024-02-28T04:05:40;101591.19;;;6.76;87.22
9695;BME280;4690;52.422;13.486;2024-02-28T04:08:06;101595.44;;;6.79;87.23
9695;BME280;4690;52.422;13.486;2024-02-28T04:10:32;101598.88;;;6.72;87.06
9695;BME280;4690;52.422;13.486;2024-02-28T04:12:57;101595.50;;;6.70;87.48
9695;BME280;4690;52.422;13.486;2024-02-28T04:15:23;101591.00;;;6.78;87.19
9695;BME280;4690;52.422;13.486;2024-02-28T04:17:51;101597.28;;;6.78;86.79
9695;BME280;4690;52.422;13.486;2024-02-28T04:20:17;101600.44;;;6.67;86.36
9695;BME280;4690;52.422;13.486;2024-02-28T04:22:43;101609.28;;;6.69;86.97
9695;BME280;4690;52.422;13.486;2024-02-28T04:25:10;101607.41;;;6.69;86.74
9695;BME280;4690;52.422;13.486;2024-02-28T04:27:36;101611.31;;;6.67;86.40
9695;BME280;4690;52.422;13.486;2024-02-28T04:30:04;101608.66;;;6.59;86.67
9695;BME280;4690;52.422;13.486;2024-02-28T04:32:30;101601.47;;;6.66;87.03
9695;BME280;4690;52.422;13.486;2024-02-28T04:34:56;101598.44;;;6.61;86.49
9695;BME280;4690;52.422;13.486;2024-02-28T04:37:22;101597.22;;;6.63;86.98
9695;BME280;4690;52.422;13.486;2024-02-28T04:39:48;101607.41;;;6.69;86.34
9695;BME280;4690;52.422;13.486;2024-02-28T04:42:14;101609.13;;;6.70;86.08
9695;BME280;4690;52.422;13.486;2024-02-28T04:44:40;101614.38;;;6.72;86.24
9695;BME280;4690;52.422;13.486;2024-02-28T04:47:06;101624.59;;;6.70;86.17
9695;BME280;4690;52.422;13.486;2024-02-28T04:49:31;101618.13;;;6.71;86.06
9695;BME280;4690;52.422;13.486;2024-02-28T04:51:57;101629.47;;;6.51;86.39
9695;BME280;4690;52.422;13.486;2024-02-28T04:54:24;101632.16;;;6.60;86.26
9695;BME280;4690;52.422;13.486;2024-02-28T04:56:50;101633.31;;;6.65;86.38
9695;BME280;4690;52.422;13.486;2024-02-28T04:59:16;101648.44;;;6.68;86.29
9695;BME280;4690;52.422;13.486;2024-02-28T05:01:42;101640.81;;;6.63;86.27
9695;BME280;4690;52.422;13.486;2024-02-28T05:04:09;101650.19;;;6.61;86.21
9695;BME280;4690;52.422;13.486;2024-02-28T05:06:35;101644.72;;;6.61;85.94
9695;BME280;4690;52.422;13.486;2024-02-28T05:09:01;101653.06;;;6.67;85.86
9695;BME280;4690;52.422;13.486;2024-02-28T05:11:27;101650.72;;;6.56;86.03
9695;BME280;4690;52.422;13.486;2024-02-28T05:13:53;101648.97;;;6.63;86.36
9695;BME280;4690;52.422;13.486;2024-02-28T05:16:18;101651.34;;;6.66;85.91
9695;BME280;4690;52.422;13.486;2024-02-28T05:18:45;101662.22;;;6.66;85.64
9695;BME280;4690;52.422;13.486;2024-02-28T05:21:11;101659.75;;;6.57;85.59
9695;BME280;4690;52.422;13.486;2024-02-28T05:23:37;101668.03;;;6.63;85.91
9695;BME280;4690;52.422;13.486;2024-02-28T05:26:03;101674.06;;;6.50;85.83
9695;BME280;4690;52.422;13.486;2024-02-28T05:28:30;101673.91;;;6.44;86.43
9695;BME280;4690;52.422;13.486;2024-02-28T05:30:57;101669.97;;;6.55;86.77
9695;BME280;4690;52.422;13.486;2024-02-28T05:33:22;101670.59;;;6.65;85.96
9695;BME280;4690;52.422;13.486;2024-02-28T05:35:48;101672.13;;;6.67;85.40
9695;BME280;4690;52.422;13.486;2024-02-28T05:38:14;101666.16;;;6.64;84.98
9695;BME280;4690;52.422;13.486;2024-02-28T05:40:41;101667.19;;;6.63;85.23
9695;BME280;4690;52.422;13.486;2024-02-28T05:43:07;101669.91;;;6.63;84.76
9695;BME280;4690;52.422;13.486;2024-02-28T05:45:33;101672.44;;;6.64;85.25
9695;BME280;4690;52.422;13.486;2024-02-28T05:47:59;101677.38;;;6.69;84.91
9695;BME280;4690;52.422;13.486;2024-02-28T05:50:25;101687.06;;;6.71;84.74
9695;BME280;4690;52.422;13.486;2024-02-28T05:52:51;101686.03;;;6.72;84.40
9695;BME280;4690;52.422;13.486;2024-02-28T05:55:17;101686.03;;;6.72;84.27
9695;BME280;4690;52.422;13.486;2024-02-28T05:57:43;101691.84;;;6.69;83.94
9695;BME280;4690;52.422;13.486;2024-02-28T06:00:09;101699.88;;;6.63;83.93
9695;BME280;4690;52.422;13.486;2024-02-28T06:02:38;101692.75;;;6.62;84.00
9695;BME280;4690;52.422;13.486;2024-02-28T06:05:05;101693.91;;;6.67;84.45
9695;BME280;4690;52.422;13.486;2024-02-28T06:07:31;101694.91;;;6.66;84.01
9695;BME280;4690;52.422;13.486;2024-02-28T06:09:56;101705.66;;;6.68;83.89
9695;BME280;4690;52.422;13.486;2024-02-28T06:12:23;101706.28;;;6.70;83.76
9695;BME280;4690;52.422;13.486;2024-02-28T06:14:49;101710.06;;;6.69;83.32
9695;BME280;4690;52.422;13.486;2024-02-28T06:17:15;101703.97;;;6.59;83.44
9695;BME280;4690;52.422;13.486;2024-02-28T06:19:40;101716.56;;;6.60;83.99
9695;BME280;4690;52.422;13.486;2024-02-28T06:22:06;101722.16;;;6.66;83.44
9695;BME280;4690;52.422;13.486;2024-02-28T06:24:36;101724.03;;;6.66;83.44
9695;BME280;4690;52.422;13.486;2024-02-28T06:27:02;101732.56;;;6.63;82.76
9695;BME280;4690;52.422;13.486;2024-02-28T06:29:28;101728.28;;;6.68;83.25
9695;BME280;4690;52.422;13.486;2024-02-28T06:31:54;101731.34;;;6.65;83.43
9695;BME280;4690;52.422;13.486;2024-02-28T06:34:21;101741.91;;;6.68;83.89
9695;BME280;4690;52.422;13.486;2024-02-28T06:36:48;101738.13;;;6.69;83.82
9695;BME280;4690;52.422;13.486;2024-02-28T06:39:13;101742.75;;;6.69;84.13
9695;BME280;4690;52.422;13.486;2024-02-28T06:41:40;101753.47;;;6.70;84.28
9695;BME280;4690;52.422;13.486;2024-02-28T06:44:06;101749.22;;;6.68;83.78
9695;BME280;4690;52.422;13.486;2024-02-28T06:46:33;101747.25;;;6.54;84.70
9695;BME280;4690;52.422;13.486;2024-02-28T06:48:58;101751.19;;;6.43;85.69
9695;BME280;4690;52.422;13.486;2024-02-28T06:51:24;101752.19;;;6.42;85.67
9695;BME280;4690;52.422;13.486;2024-02-28T06:53:50;101745.78;;;6.26;86.93
9695;BME280;4690;52.422;13.486;2024-02-28T06:56:16;101750.38;;;6.26;87.84
9695;BME280;4690;52.422;13.486;2024-02-28T06:58:41;101749.50;;;6.34;87.71
9695;BME280;4690;52.422;13.486;2024-02-28T07:01:07;101756.66;;;6.35;87.24
9695;BME280;4690;52.422;13.486;2024-02-28T07:03:33;101757.34;;;6.37;87.69
9695;BME280;4690;52.422;13.486;2024-02-28T07:05:59;101755.81;;;6.34;88.19
9695;BME280;4690;52.422;13.486;2024-02-28T07:08:24;101759.72;;;6.23;87.89
9695;BME280;4690;52.422;13.486;2024-02-28T07:10:50;101767.72;;;6.25;88.38
9695;BME280;4690;52.422;13.486;2024-02-28T07:13:20;101765.69;;;6.27;88.36
9695;BME280;4690;52.422;13.486;2024-02-28T07:15:47;101766.03;;;6.16;88.24
9695;BME280;4690;52.422;13.486;2024-02-28T07:18:14;101772.84;;;6.12;89.28
9695;BME280;4690;52.422;13.486;2024-02-28T07:20:40;101771.81;;;6.13;88.98
9695;BME280;4690;52.422;13.486;2024-02-28T07:23:06;101768.94;;;6.14;88.70
9695;BME280;4690;52.422;13.486;2024-02-28T07:25:32;101775.75;;;6.10;88.17
9695;BME280;4690;52.422;13.486;2024-02-28T07:27:58;101774.91;;;6.10;87.65
9695;BME280;4690;52.422;13.486;2024-02-28T07:30:28;101775.91;;;6.17;87.82
9695;BME280;4690;52.422;13.486;2024-02-28T07:32:54;101773.38;;;6.07;87.40
9695;BME280;4690;52.422;13.486;2024-02-28T07:35:20;101781.53;;;6.15;87.12
9695;BME280;4690;52.422;13.486;2024-02-28T07:37:46;101778.59;;;6.25;87.01
9695;BME280;4690;52.422;13.486;2024-02-28T07:40:12;101774.53;;;6.29;86.50
9695;BME280;4690;52.422;13.486;2024-02-28T07:42:38;101778.59;;;6.33;85.94
9695;BME280;4690;52.422;13.486;2024-02-28T07:45:04;101773.50;;;6.30;86.02
9695;BME280;4690;52.422;13.486;2024-02-28T07:47:30;101769.41;;;6.42;85.52
9695;BME280;4690;52.422;13.486;2024-02-28T07:49:56;101777.34;;;6.52;85.13
9695;BME280;4690;52.422;13.486;2024-02-28T07:52:22;101777.50;;;6.59;85.81
9695;BME280;4690;52.422;13.486;2024-02-28T07:54:48;101780.53;;;6.64;84.86
9695;BME280;4690;52.422;13.486;2024-02-28T07:57:14;101788.00;;;6.70;84.48
9695;BME280;4690;52.422;13.486;2024-02-28T07:59:41;101789.72;;;6.71;84.22
9695;BME280;4690;52.422;13.486;2024-02-28T08:02:08;101789.41;;;6.58;83.66
9695;BME280;4690;52.422;13.486;2024-02-28T08:04:35;101801.25;;;6.25;84.63
9695;BME280;4690;52.422;13.486;2024-02-28T08:07:01;101793.06;;;6.34;84.80
9695;BME280;4690;52.422;13.486;2024-02-28T08:09:28;101792.56;;;6.22;84.55
9695;BME280;4690;52.422;13.486;2024-02-28T08:11:54;101795.09;;;6.32;85.32
9695;BME280;4690;52.422;13.486;2024-02-28T08:14:19;101810.25;;;6.34;84.73
9695;BME280;4690;52.422;13.486;2024-02-28T08:16:45;101813.97;;;6.41;84.20
9695;BME280;4690;52.422;13.486;2024-02-28T08:19:11;101820.28;;;6.34;84.06
9695;BME280;4690;52.422;13.486;2024-02-28T08:21:37;101820.31;;;6.25;84.72
9695;BME280;4690;52.422;13.486;2024-02-28T08:24:02;101823.53;;;6.29;84.09
9695;BME280;4690;52.422;13.486;2024-02-28T08:26:31;101823.16;;;6.32;83.89
9695;BME280;4690;52.422;13.486;2024-02-28T08:28:57;101823.66;;;6.36;83.29
9695;BME280;4690;52.422;13.486;2024-02-28T08:31:23;101816.19;;;6.38;83.32
9695;BME280;4690;52.422;13.486;2024-02-28T08:33:49;101829.63;;;6.39;83.67
9695;BME280;4690;52.422;13.486;2024-02-28T08:36:14;101834.41;;;6.21;83.16
9695;BME280;4690;52.422;13.486;2024-02-28T08:38:43;101832.38;;;6.31;82.87
9695;BME280;4690;52.422;13.486;2024-02-28T08:41:10;101836.09;;;6.22;82.77
9695;BME280;4690;52.422;13.486;2024-02-28T08:43:40;101844.47;;;6.12;83.12
9695;BME280;4690;52.422;13.486;2024-02-28T08:46:06;101852.28;;;6.07;82.60
9695;BME280;4690;52.422;13.486;2024-02-28T08:48:35;101853.66;;;6.03;82.06
9695;BME280;4690;52.422;13.486;2024-02-28T08:51:03;101849.50;;;5.91;83.18
9695;BME280;4690;52.422;13.486;2024-02-28T08:53:29;101844.81;;;6.09;83.54
9695;BME280;4690;52.422;13.486;2024-02-28T08:55:54;101848.38;;;6.10;82.73
9695;BME280;4690;52.422;13.486;2024-02-28T08:58:20;101853.47;;;6.13;82.53
9695;BME280;4690;52.422;13.486;2024-02-28T09:00:46;101845.81;;;6.16;81.60
9695;BME280;4690;52.422;13.486;2024-02-28T09:03:12;101853.47;;;6.21;81.77
9695;BME280;4690;52.422;13.486;2024-02-28T09:05:37;101844.94;;;6.24;80.67
9695;BME280;4690;52.422;13.486;2024-02-28T09:08:04;101856.03;;;6.22;80.67
9695;BME280;4690;52.422;13.486;2024-02-28T09:10:30;101848.72;;;6.15;79.97
9695;BME280;4690;52.422;13.486;2024-02-28T09:13:00;101844.59;;;6.19;80.47
9695;BME280;4690;52.422;13.486;2024-02-28T09:15:25;101837.47;;;6.26;80.27
9695;BME280;4690;52.422;13.486;2024-02-28T09:17:51;101841.53;;;6.30;80.38
9695;BME280;4690;52.422;13.486;2024-02-28T09:20:17;101837.97;;;6.38;79.76
9695;BME280;4690;52.422;13.486;2024-02-28T09:22:43;101834.75;;;6.42;80.05
9695;BME280;4690;52.422;13.486;2024-02-28T09:25:09;101845.28;;;6.45;80.09
9695;BME280;4690;52.422;13.486;2024-02-28T09:27:37;101843.19;;;6.56;79.91
9695;BME280;4690;52.422;13.486;2024-02-28T09:30:03;101838.41;;;6.66;79.89
9695;BME280;4690;52.422;13.486;2024-02-28T09:32:29;101833.47;;;6.69;79.53
9695;BME280;4690;52.422;13.486;2024-02-28T09:34:55;101842.47;;;6.70;78.45
9695;BME280;4690;52.422;13.486;2024-02-28T09:37:21;101841.84;;;6.60;78.78
9695;BME280;4690;52.422;13.486;2024-02-28T09:39:48;101839.28;;;6.58;78.64
9695;BME280;4690;52.422;13.486;2024-02-28T09:42:14;101837.75;;;6.64;78.64
9695;BME280;4690;52.422;13.486;2024-02-28T09:44:43;101846.59;;;6.66;79.04
9695;BME280;4690;52.422;13.486;2024-02-28T09:47:09;101844.03;;;6.64;79.23
9695;BME280;4690;52.422;13.486;2024-02-28T09:49:35;101858.19;;;6.60;78.22
9695;BME280;4690;52.422;13.486;2024-02-28T09:52:04;101854.78;;;6.41;78.47
9695;BME280;4690;52.422;13.486;2024-02-28T09:54:30;101861.78;;;6.44;79.04
9695;BME280;4690;52.422;13.486;2024-02-28T09:56:56;101869.09;;;6.35;78.90
9695;BME280;4690;52.422;13.486;2024-02-28T09:59:24;101866.03;;;6.22;77.60
9695;BME280;4690;52.422;13.486;2024-02-28T10:02:01;101876.78;;;6.23;78.04
9695;BME280;4690;52.422;13.486;2024-02-28T10:04:27;101876.94;;;6.22;78.37
9695;BME280;4690;52.422;13.486;2024-02-28T10:06:53;101878.63;;;6.06;78.68
9695;BME280;4690;52.422;13.486;2024-02-28T10:09:19;101874.84;;;5.91;80.21
9695;BME280;4690;52.422;13.486;2024-02-28T10:11:45;101881.84;;;6.02;79.90
9695;BME280;4690;52.422;13.486;2024-02-28T10:14:17;101879.66;;;6.05;79.48
9695;BME280;4690;52.422;13.486;2024-02-28T10:16:43;101881.19;;;6.08;78.66
9695;BME280;4690;52.422;13.486;2024-02-28T10:19:09;101876.78;;;6.15;79.20
9695;BME280;4690;52.422;13.486;2024-02-28T10:21:35;101886.31;;;6.11;79.75
9695;BME280;4690;52.422;13.486;2024-02-28T10:24:01;101891.41;;;6.22;79.53
9695;BME280;4690;52.422;13.486;2024-02-28T10:26:27;101895.28;;;6.36;78.40
9695;BME280;4690;52.422;13.486;2024-02-28T10:28:55;101897.00;;;6.37;78.38
9695;BME280;4690;52.422;13.486;2024-02-28T10:31:21;101904.16;;;6.46;77.64
9695;BME280;4690;52.422;13.486;2024-02-28T10:33:47;101899.03;;;6.43;78.37
9695;BME280;4690;52.422;13.486;2024-02-28T10:36:13;101897.66;;;6.47;77.92
9695;BME280;4690;52.422;13.486;2024-02-28T10:38:38;101892.75;;;6.43;76.89
9695;BME280;4690;52.422;13.486;2024-02-28T10:41:05;101904.50;;;6.43;77.08
9695;BME280;4690;52.422;13.486;2024-02-28T10:43:32;101912.31;;;6.46;77.59
9695;BME280;4690;52.422;13.486;2024-02-28T10:46:00;101915.72;;;6.57;77.13
9695;BME280;4690;52.422;13.486;2024-02-28T10:48:27;101906.50;;;6.66;77.21
9695;BME280;4690;52.422;13.486;2024-02-28T10:50:53;101914.00;;;6.64;77.41
9695;BME280;4690;52.422;13.486;2024-02-28T10:53:54;101913.66;;;6.59;76.12
9695;BME280;4690;52.422;13.486;2024-02-28T10:56:22;101908.41;;;6.65;76.42
9695;BME280;4690;52.422;13.486;2024-02-28T10:58:52;101909.59;;;6.63;75.57
9695;BME280;4690;52.422;13.486;2024-02-28T11:01:21;101912.44;;;6.78;75.95
9695;BME280;4690;52.422;13.486;2024-02-28T11:03:49;101916.00;;;6.86;75.46
9695;BME280;4690;52.422;13.486;2024-02-28T11:06:20;101914.31;;;6.93;75.15
9695;BME280;4690;52.422;13.486;2024-02-28T11:08:48;101916.69;;;6.96;74.64
9695;BME280;4690;52.422;13.486;2024-02-28T11:11:15;101920.25;;;6.97;74.33
9695;BME280;4690;52.422;13.486;2024-02-28T11:13:57;101918.91;;;6.93;74.43
9695;BME280;4690;52.422;13.486;2024-02-28T11:16:32;101921.78;;;6.91;74.66
9695;BME280;4690;52.422;13.486;2024-02-28T11:19:00;101926.91;;;6.86;74.12
9695;BME280;4690;52.422;13.486;2024-02-28T11:21:28;101922.50;;;6.85;74.02
9695;BME280;4690;52.422;13.486;2024-02-28T11:24:01;101919.91;;;6.92;73.21
9695;BME280;4690;52.422;13.486;2024-02-28T11:26:27;101914.41;;;7.08;73.71
9695;BME280;4690;52.422;13.486;2024-02-28T11:28:55;101916.28;;;7.16;72.73
9695;BME280;4690;52.422;13.486;2024-02-28T11:31:21;101915.25;;;7.17;72.69
9695;BME280;4690;52.422;13.486;2024-02-28T11:33:47;101913.06;;;7.12;71.67
9695;BME280;4690;52.422;13.486;2024-02-28T11:36:14;101909.63;;;7.18;71.56
9695;BME280;4690;52.422;13.486;2024-02-28T11:38:40;101914.88;;;7.20;71.62
9695;BME280;4690;52.422;13.486;2024-02-28T11:41:07;101911.66;;;7.25;71.51
9695;BME280;4690;52.422;13.486;2024-02-28T11:43:34;101921.50;;;7.26;70.62
9695;BME280;4690;52.422;13.486;2024-02-28T11:46:08;101927.25;;;6.75;71.79
9695;BME280;4690;52.422;13.486;2024-02-28T11:48:36;101925.72;;;6.81;71.80
9695;BME280;4690;52.422;13.486;2024-02-28T11:51:02;101928.66;;;6.71;72.34
9695;BME280;4690;52.422;13.486;2024-02-28T11:53:28;101927.06;;;6.93;72.05
9695;BME280;4690;52.422;13.486;2024-02-28T11:55:54;101926.16;;;7.17;72.28
9695;BME280;4690;52.422;13.486;2024-02-28T11:58:22;101922.34;;;7.34;70.60
9695;BME280;4690;52.422;13.486;2024-02-28T12:00:51;101923.59;;;7.24;69.81
9695;BME280;4690;52.422;13.486;2024-02-28T12:03:25;101933.78;;;7.30;69.28
9695;BME280;4690;52.422;13.486;2024-02-28T12:05:56;101932.41;;;7.34;68.80
9695;BME280;4690;52.422;13.486;2024-02-28T12:08:22;101934.25;;;7.41;67.96
9695;BME280;4690;52.422;13.486;2024-02-28T12:10:48;101928.09;;;7.39;68.90
9695;BME280;4690;52.422;13.486;2024-02-28T12:13:17;101924.06;;;7.35;68.79
9695;BME280;4690;52.422;13.486;2024-02-28T12:15:46;101932.19;;;7.44;67.42
9695;BME280;4690;52.422;13.486;2024-02-28T12:18:17;101937.44;;;6.89;68.36
9695;BME280;4690;52.422;13.486;2024-02-28T12:20:43;101936.69;;;7.20;68.67
9695;BME280;4690;52.422;13.486;2024-02-28T12:23:10;101928.50;;;7.28;68.24
9695;BME280;4690;52.422;13.486;2024-02-28T12:25:36;101933.88;;;7.45;67.71
9695;BME280;4690;52.422;13.486;2024-02-28T12:28:04;101936.31;;;7.31;68.78
9695;BME280;4690;52.422;13.486;2024-02-28T12:30:40;101929.75;;;7.49;68.31
9695;BME280;4690;52.422;13.486;2024-02-28T12:33:08;101934.94;;;7.75;66.68
9695;BME280;4690;52.422;13.486;2024-02-28T12:35:34;101920.38;;;7.82;64.74
9695;BME280;4690;52.422;13.486;2024-02-28T12:38:00;101932.00;;;7.45;64.42
9695;BME280;4690;52.422;13.486;2024-02-28T12:40:26;101919.84;;;7.56;65.51
9695;BME280;4690;52.422;13.486;2024-02-28T12:42:51;101927.72;;;7.51;67.20
9695;BME280;4690;52.422;13.486;2024-02-28T12:45:17;101925.16;;;7.57;65.43
9695;BME280;4690;52.422;13.486;2024-02-28T12:47:43;101933.19;;;7.51;67.02
9695;BME280;4690;52.422;13.486;2024-02-28T12:50:09;101927.59;;;7.75;66.70
9695;BME280;4690;52.422;13.486;2024-02-28T12:52:36;101927.47;;;8.00;66.16
9695;BME280;4690;52.422;13.486;2024-02-28T12:55:02;101924.66;;;8.08;66.17
9695;BME280;4690;52.422;13.486;2024-02-28T12:57:28;101929.16;;;8.01;64.26
9695;BME280;4690;52.422;13.486;2024-02-28T12:59:54;101939.16;;;7.85;65.43
9695;BME280;4690;52.422;13.486;2024-02-28T13:02:21;101933.75;;;8.00;65.68
9695;BME280;4690;52.422;13.486;2024-02-28T13:04:47;101945.22;;;8.19;64.14
9695;BME280;4690;52.422;13.486;2024-02-28T13:07:14;101943.34;;;8.19;64.74
9695;BME280;4690;52.422;13.486;2024-02-28T13:09:41;101935.47;;;8.24;63.10
9695;BME280;4690;52.422;13.486;2024-02-28T13:12:08;101942.44;;;8.27;63.46
9695;BME280;4690;52.422;13.486;2024-02-28T13:14:34;101942.31;;;8.20;62.69